Terminal Aerodrome Forecast
Issued by NWS

Home | Current Version | Previous Version | Text Only | Print | Product List | Glossary On
Versions: 1 2 3 4 5 6 7 8 9 10 11 12 13 14 15 16 17 18 19 20 21 22 23 24 25 26 27
000
FTUS41 KBTV 251739
TAFPBG
TAF
KPBG 251739Z 2518/2618 16011KT P6SM VCSH FEW007 BKN050
     FM252000 16011KT P6SM VCSH SCT030
     FM252300 17006KT P6SM FEW150
     FM260700 00000KT P6SM FEW150
     FM261300 14010KT P6SM SCT200=

USA.gov is the U.S. government's official web portal to all federal, state and local government web resources and services.